This is the latest recevied weather packets stored in our database for station/object LTAC. If no packets are shown the sender has not sent any weather packets the latest 10 day(s).
| Time | Temp. | Humidity | Pressure | Rain* | Wind** | Luminosity | Snow |
|---|---|---|---|---|---|---|---|
| 1777360503 | 12.22° C | 66% | 1017 hPa | - | - | - | - |
| 1777359605 | 12.22° C | 66% | 1017 hPa | - | - | - | - |
| 1777358705 | 11.11° C | 71% | 1017 hPa | - | - | - | - |
| 1777357805 | 11.11° C | 71% | 1017 hPa | - | - | - | - |
| 1777356004 | 10° C | 71% | 1017 hPa | - | - | - | - |
| 1777355104 | 8.89° C | 76% | 1017 hPa | - | - | - | - |
| 1777353304 | 7.22° C | 81% | 1017 hPa | - | - | - | - |
| 1777352404 | 7.22° C | 81% | 1017 hPa | - | - | - | - |
| 1777349703 | 6.11° C | 87% | 1017 hPa | - | - | - | - |
| 1777348805 | 6.11° C | 87% | 1017 hPa | - | - | - | - |
| 1777347904 | 6.11° C | 87% | 1017 hPa | - | - | - | - |
| 1777347004 | 6.11° C | 87% | 1017 hPa | - | - | - | - |
| 1777346104 | 6.11° C | 87% | 1017 hPa | - | - | - | - |
| 1777345204 | 6.11° C | 87% | 1017 hPa | - | - | - | - |
| 1777344305 | 6.11° C | 87% | 1017 hPa | - | - | - | - |
| 1777343404 | 6.11° C | 87% | 1017 hPa | - | - | - | - |
| 1777342503 | 6.11° C | 87% | 1017 hPa | - | - | - | - |
| 1777339804 | 7.22° C | 81% | 1017 hPa | - | - | - | - |
| 1777338004 | 7.22° C | 81% | 1017 hPa | - | - | - | - |
| 1777337104 | 7.22° C | 81% | 1017 hPa | - | - | - | - |
| 1777336204 | 7.22° C | 81% | 1017 hPa | - | - | - | - |
| 1777334404 | 7.78° C | 75% | 1017 hPa | - | - | - | - |
| 1777333504 | 8.89° C | 70% | 1017 hPa | - | - | - | - |
| 1777332605 | 8.89° C | 70% | 1017 hPa | - | - | - | - |
| 1777331704 | 8.89° C | 66% | 1017 hPa | - | - | - | - |
* Rain since midnight (hover to see other rain measurements)
** Current wind speed in m/s (hover to see current wind gust speed)